PWSweather.com
Personal Weather Stations
Station Observations
PHMDWX
Perry Hall, MD 21236

Perry Hall, MD 21236

Lat: 39.418318, Lon: -76.490039

Elevation: 305

Station Type: Davis Vantage Pro

www.phmdwx.net

High Low Average
Temperature 88.2°F31.2°F 66.1°F18.9°F 74.7°F23.7°F
Dew Point 69.5°F20.8°F 63.1°F17.3°F 65.2°F18.4°F
Winds 5.4 mph NW8.7 mph NW Calm Calm 1.5 mph 2.4 mph
Wind Gusts 10.0 mph16.1 mph -- 3.6 mph5.8 mph
Humidity 93% 46% 74%
Pressure 29.93 in1013.50 in 29.84 in1010.50 in -
Precipitation 0.00 in0.00 in - -
Hour Temp Dew Point Humidity Winds Wind Gusts Pressure Precip Precip Rate Daily Precip Total
12:00 AM 69.9°F21.1°C 65.5°F18.6°C 86% 1.1 mph WSW1.8 kmh WSW 4.0 mph6.4 kmh 29.86 in1011.2 mb - 0.00 in0.0 mm 0.00 in0.0 mm
12:30 AM 70.1°F21.2°C 65.7°F18.7°C 86% Calm Calm -- 29.86 in1011.2 mb - 0.00 in0.0 mm 0.00 in0.0 mm
01:00 AM 70.1°F21.2°C 65.4°F18.6°C 85% 0.4 mph W0.6 kmh W 2.0 mph3.2 kmh 29.86 in1011.2 mb - 0.00 in0.0 mm 0.00 in0.0 mm
01:30 AM 70.1°F21.2°C 65.0°F18.3°C 84% 0.2 mph W0.3 kmh W 1.0 mph1.6 kmh 29.86 in1011.2 mb - 0.00 in0.0 mm 0.00 in0.0 mm
02:00 AM 70.1°F21.2°C 65.4°F18.6°C 85% 0.2 mph W0.3 kmh W 2.0 mph3.2 kmh 29.86 in1011.2 mb - 0.00 in0.0 mm 0.00 in0.0 mm
02:30 AM 70.1°F21.2°C 64.7°F18.2°C 83% 3.7 mph W6.0 kmh W 7.0 mph11.3 kmh 29.85 in1010.8 mb - 0.00 in0.0 mm 0.00 in0.0 mm
03:00 AM 69.9°F21.1°C 64.5°F18.1°C 83% 1.3 mph W2.1 kmh W 6.0 mph9.7 kmh 29.84 in1010.5 mb - 0.00 in0.0 mm 0.00 in0.0 mm
03:30 AM 69.8°F21.0°C 64.4°F18.0°C 83% 0.9 mph WNW1.4 kmh WNW 4.0 mph6.4 kmh 29.84 in1010.5 mb - 0.00 in0.0 mm 0.00 in0.0 mm
04:00 AM 69.6°F20.9°C 64.5°F18.1°C 84% 0.5 mph W0.8 kmh W 3.0 mph4.8 kmh 29.84 in1010.5 mb - 0.00 in0.0 mm 0.00 in0.0 mm
04:30 AM 69.6°F20.9°C 64.2°F17.9°C 83% 1.0 mph W1.6 kmh W 4.0 mph6.4 kmh 29.84 in1010.5 mb - 0.00 in0.0 mm 0.00 in0.0 mm
05:00 AM 69.9°F21.1°C 63.8°F17.7°C 81% 1.0 mph WNW1.6 kmh WNW 3.0 mph4.8 kmh 29.84 in1010.5 mb - 0.00 in0.0 mm 0.00 in0.0 mm
05:30 AM 69.9°F21.1°C 63.8°F17.7°C 81% 1.6 mph WNW2.6 kmh WNW 4.0 mph6.4 kmh 29.85 in1010.8 mb - 0.00 in0.0 mm 0.00 in0.0 mm
06:00 AM 69.6°F20.9°C 63.9°F17.7°C 82% 2.0 mph W3.2 kmh W 5.0 mph8.0 kmh 29.86 in1011.2 mb - 0.00 in0.0 mm 0.00 in0.0 mm
06:30 AM 69.4°F20.8°C 64.0°F17.8°C 83% 0.6 mph W1.0 kmh W 1.0 mph1.6 kmh 29.87 in1011.5 mb - 0.00 in0.0 mm 0.00 in0.0 mm
07:00 AM 69.3°F20.7°C 63.9°F17.7°C 83% 0.5 mph WNW0.8 kmh WNW 3.0 mph4.8 kmh 29.88 in1011.9 mb - 0.00 in0.0 mm 0.00 in0.0 mm
07:30 AM 69.3°F20.7°C 64.3°F17.9°C 84% 1.6 mph WNW2.6 kmh WNW 3.0 mph4.8 kmh 29.88 in1011.9 mb - 0.00 in0.0 mm 0.00 in0.0 mm
08:00 AM 69.4°F20.8°C 64.4°F18.0°C 84% 2.5 mph W4.0 kmh W 5.0 mph8.0 kmh 29.89 in1012.2 mb - 0.00 in0.0 mm 0.00 in0.0 mm
08:30 AM 70.9°F21.6°C 64.8°F18.2°C 81% 2.9 mph NW4.7 kmh NW 5.0 mph8.0 kmh 29.89 in1012.2 mb - 0.00 in0.0 mm 0.00 in0.0 mm
09:00 AM 72.1°F22.3°C 64.9°F18.3°C 78% 3.3 mph W5.3 kmh W 5.0 mph8.0 kmh 29.91 in1012.9 mb - 0.00 in0.0 mm 0.00 in0.0 mm
09:30 AM 72.9°F22.7°C 65.6°F18.7°C 78% 1.8 mph WSW2.9 kmh WSW 5.0 mph8.0 kmh 29.91 in1012.9 mb - 0.00 in0.0 mm 0.00 in0.0 mm
10:00 AM 74.0°F23.3°C 66.0°F18.9°C 76% 0.7 mph NW1.1 kmh NW 3.0 mph4.8 kmh 29.91 in1012.9 mb - 0.00 in0.0 mm 0.00 in0.0 mm
10:30 AM 74.7°F23.7°C 65.9°F18.8°C 74% 2.6 mph W4.2 kmh W 5.0 mph8.0 kmh 29.91 in1012.9 mb - 0.00 in0.0 mm 0.00 in0.0 mm
11:00 AM 75.3°F24.1°C 66.8°F19.3°C 75% 3.2 mph NW5.1 kmh NW 3.0 mph4.8 kmh 29.91 in1012.9 mb - 0.00 in0.0 mm 0.00 in0.0 mm
11:30 AM 78.5°F25.8°C 66.6°F19.2°C 67% 5.2 mph WSW8.4 kmh WSW 10.0 mph16.1 kmh 29.91 in1012.9 mb - 0.00 in0.0 mm 0.00 in0.0 mm
12:00 PM 77.9°F25.5°C 66.9°F19.4°C 69% 2.5 mph WNW4.0 kmh WNW 5.0 mph8.0 kmh 29.90 in1012.5 mb - 0.00 in0.0 mm 0.00 in0.0 mm
12:30 PM 81.9°F27.7°C 69.5°F20.8°C 66% 1.5 mph E2.4 kmh E 4.0 mph6.4 kmh 29.89 in1012.2 mb - 0.00 in0.0 mm 0.00 in0.0 mm
01:00 PM 85.1°F29.5°C 67.6°F19.8°C 56% 1.4 mph NW2.3 kmh NW 5.0 mph8.0 kmh 29.89 in1012.2 mb - 0.00 in0.0 mm 0.00 in0.0 mm
01:30 PM 84.9°F29.4°C 67.5°F19.7°C 56% 2.4 mph NW3.9 kmh NW 5.0 mph8.0 kmh 29.88 in1011.9 mb - 0.00 in0.0 mm 0.00 in0.0 mm
02:00 PM 86.4°F30.2°C 66.2°F19.0°C 51% 3.6 mph N5.8 kmh N 9.0 mph14.5 kmh 29.87 in1011.5 mb - 0.00 in0.0 mm 0.00 in0.0 mm
02:30 PM 86.0°F30.0°C 66.9°F19.4°C 53% 5.4 mph NW8.7 kmh NW 7.0 mph11.3 kmh 29.87 in1011.5 mb - 0.00 in0.0 mm 0.00 in0.0 mm
03:00 PM 86.1°F30.1°C 67.0°F19.4°C 53% 0.7 mph ENE1.1 kmh ENE 2.0 mph3.2 kmh 29.86 in1011.2 mb - 0.00 in0.0 mm 0.00 in0.0 mm
03:30 PM 87.4°F30.8°C 67.6°F19.8°C 52% 2.8 mph W4.5 kmh W 7.0 mph11.3 kmh 29.86 in1011.2 mb - 0.00 in0.0 mm 0.00 in0.0 mm
04:00 PM 88.2°F31.2°C 66.0°F18.9°C 48% 2.6 mph WNW4.2 kmh WNW 7.0 mph11.3 kmh 29.86 in1011.2 mb - 0.00 in0.0 mm 0.00 in0.0 mm
04:30 PM 87.4°F30.8°C 64.1°F17.8°C 46% 2.8 mph WSW4.5 kmh WSW 6.0 mph9.7 kmh 29.86 in1011.2 mb - 0.00 in0.0 mm 0.00 in0.0 mm
05:00 PM 86.7°F30.4°C 63.4°F17.4°C 46% 1.3 mph WNW2.1 kmh WNW 1.0 mph1.6 kmh 29.86 in1011.2 mb - 0.00 in0.0 mm 0.00 in0.0 mm
05:30 PM 84.0°F28.9°C 63.9°F17.7°C 51% 1.1 mph NW1.8 kmh NW 5.0 mph8.0 kmh 29.87 in1011.5 mb - 0.00 in0.0 mm 0.00 in0.0 mm
06:00 PM 81.2°F27.3°C 63.5°F17.5°C 55% 2.5 mph WNW4.0 kmh WNW 3.0 mph4.8 kmh 29.88 in1011.9 mb - 0.00 in0.0 mm 0.00 in0.0 mm
06:30 PM 79.2°F26.2°C 63.1°F17.3°C 58% 1.9 mph W3.1 kmh W 3.0 mph4.8 kmh 29.88 in1011.9 mb - 0.00 in0.0 mm 0.00 in0.0 mm
07:00 PM 77.4°F25.2°C 63.8°F17.7°C 63% 1.0 mph W1.6 kmh W 2.0 mph3.2 kmh 29.89 in1012.2 mb - 0.00 in0.0 mm 0.00 in0.0 mm
07:30 PM 74.5°F23.6°C 66.5°F19.2°C 76% Calm Calm 1.0 mph1.6 kmh 29.89 in1012.2 mb - 0.00 in0.0 mm 0.00 in0.0 mm
08:00 PM 71.8°F22.1°C 65.7°F18.7°C 81% 0.4 mph W0.6 kmh W 2.0 mph3.2 kmh 29.90 in1012.5 mb - 0.00 in0.0 mm 0.00 in0.0 mm
08:30 PM 70.1°F21.2°C 64.7°F18.2°C 83% Calm Calm -- 29.90 in1012.5 mb - 0.00 in0.0 mm 0.00 in0.0 mm
09:00 PM 69.1°F20.6°C 65.4°F18.6°C 88% 0.2 mph W0.3 kmh W 1.0 mph1.6 kmh 29.91 in1012.9 mb - 0.00 in0.0 mm 0.00 in0.0 mm
09:30 PM 67.8°F19.9°C 65.1°F18.4°C 91% Calm Calm -- 29.91 in1012.9 mb - 0.00 in0.0 mm 0.00 in0.0 mm
10:00 PM 67.3°F19.6°C 64.6°F18.1°C 91% 0.5 mph W0.8 kmh W -- 29.91 in1012.9 mb - 0.00 in0.0 mm 0.00 in0.0 mm
10:30 PM 66.8°F19.3°C 63.8°F17.7°C 90% Calm Calm 2.0 mph3.2 kmh 29.92 in1013.2 mb - 0.00 in0.0 mm 0.00 in0.0 mm
11:00 PM 66.8°F19.3°C 64.1°F17.8°C 91% Calm Calm -- 29.93 in1013.5 mb - 0.00 in0.0 mm 0.00 in0.0 mm
11:30 PM 66.1°F18.9°C 64.0°F17.8°C 93% Calm Calm 1.0 mph1.6 kmh 29.93 in1013.5 mb - 0.00 in0.0 mm 0.00 in0.0 mm